createdAt,value
2023-03-22T00:01:21.292Z,4.57
2023-03-22T00:03:49.554Z,8.60
2023-03-22T00:06:18.703Z,7.03
2023-03-22T00:08:46.365Z,5.68
2023-03-22T00:11:13.923Z,5.90
2023-03-22T00:13:42.993Z,8.35
2023-03-22T00:16:10.898Z,8.80
2023-03-22T00:18:38.648Z,8.47
2023-03-22T00:21:07.544Z,9.13
2023-03-22T00:23:36.620Z,12.68
2023-03-22T00:26:04.435Z,8.75
2023-03-22T00:28:32.212Z,7.72
2023-03-22T00:31:00.810Z,6.27
2023-03-22T00:33:29.320Z,11.48
2023-03-22T00:35:58.979Z,8.10
2023-03-22T00:38:44.957Z,8.05
2023-03-22T00:41:15.010Z,10.65
2023-03-22T00:43:43.062Z,5.43
2023-03-22T00:46:11.302Z,5.20
2023-03-22T00:48:39.163Z,7.22
2023-03-22T00:51:07.233Z,6.60
2023-03-22T00:53:36.386Z,10.48
2023-03-22T00:56:04.500Z,8.70
2023-03-22T00:58:34.057Z,6.38
2023-03-22T01:01:02.011Z,7.00
2023-03-22T01:03:29.826Z,3.03
2023-03-22T01:05:57.827Z,6.72
2023-03-22T01:08:25.596Z,6.33
2023-03-22T01:10:53.401Z,5.45
2023-03-22T01:13:21.111Z,8.60
2023-03-22T01:15:52.456Z,4.03
2023-03-22T01:18:27.515Z,6.53
2023-03-22T01:20:55.067Z,8.17
2023-03-22T01:23:22.925Z,7.72
2023-03-22T01:25:50.597Z,6.43
2023-03-22T01:28:18.090Z,5.15
2023-03-22T01:30:45.694Z,4.70
2023-03-22T01:33:14.626Z,5.90
2023-03-22T01:35:42.224Z,4.55
2023-03-22T01:38:09.917Z,4.88
2023-03-22T01:40:37.823Z,4.88
2023-03-22T01:43:10.501Z,4.97
2023-03-22T01:45:40.356Z,3.57
2023-03-22T01:48:10.804Z,5.25
2023-03-22T01:50:42.623Z,5.03
2023-03-22T01:53:12.034Z,3.53
2023-03-22T01:55:39.679Z,6.03
2023-03-22T01:58:09.973Z,6.70
2023-03-22T02:00:38.207Z,4.07
2023-03-22T02:03:07.539Z,4.05
2023-03-22T02:05:48.561Z,4.07
2023-03-22T02:08:17.944Z,2.95
2023-03-22T02:10:45.502Z,4.27
2023-03-22T02:13:34.260Z,3.03
2023-03-22T02:16:08.598Z,4.20
2023-03-22T02:18:43.208Z,5.15
2023-03-22T02:21:30.879Z,5.05
2023-03-22T02:24:08.075Z,3.27
2023-03-22T02:26:47.928Z,2.80
2023-03-22T02:29:19.433Z,3.90
2023-03-22T02:32:01.271Z,5.22
2023-03-22T02:34:43.828Z,5.78
2023-03-22T02:37:27.061Z,5.77
2023-03-22T02:39:57.089Z,4.60
2023-03-22T02:42:30.148Z,2.58
2023-03-22T02:45:03.343Z,2.67
2023-03-22T02:47:38.442Z,2.83
2023-03-22T02:50:09.958Z,2.53
2023-03-22T02:52:41.841Z,2.05
2023-03-22T02:55:14.966Z,3.40
2023-03-22T02:57:45.256Z,3.42
2023-03-22T03:00:18.034Z,5.72
2023-03-22T03:02:50.605Z,3.07
2023-03-22T03:05:19.331Z,2.50
2023-03-22T03:07:49.566Z,5.07
2023-03-22T03:10:19.388Z,3.25
2023-03-22T03:12:47.053Z,2.30
2023-03-22T03:15:16.760Z,1.97
2023-03-22T03:17:51.962Z,4.97
2023-03-22T03:20:30.289Z,5.65
2023-03-22T03:23:05.765Z,3.85
2023-03-22T03:25:43.271Z,2.50
2023-03-22T03:28:14.747Z,4.30
2023-03-22T03:30:46.332Z,4.78
2023-03-22T03:33:16.976Z,1.52
2023-03-22T03:35:46.614Z,3.65
2023-03-22T03:38:17.939Z,2.63
2023-03-22T03:40:49.931Z,3.17
2023-03-22T03:43:17.510Z,4.07
2023-03-22T03:45:53.923Z,3.92
2023-03-22T03:48:23.387Z,3.70
2023-03-22T03:50:53.035Z,3.05
2023-03-22T03:53:20.742Z,3.07
2023-03-22T03:55:49.708Z,4.32
2023-03-22T03:58:17.250Z,2.88
2023-03-22T04:00:46.121Z,1.95
2023-03-22T04:03:14.411Z,2.85
2023-03-22T04:05:42.245Z,4.03
2023-03-22T04:08:09.867Z,2.22
2023-03-22T04:10:37.720Z,2.88
2023-03-22T04:13:07.017Z,3.28
2023-03-22T04:15:34.602Z,1.52
2023-03-22T04:18:03.527Z,2.40
2023-03-22T04:20:31.604Z,2.58
2023-03-22T04:23:00.357Z,2.70
2023-03-22T04:25:30.111Z,1.98
2023-03-22T04:27:57.808Z,3.33
2023-03-22T04:30:27.571Z,4.43
2023-03-22T04:32:56.331Z,2.60
2023-03-22T04:35:23.899Z,3.08
2023-03-22T04:37:52.110Z,3.35
2023-03-22T04:40:20.710Z,2.20
2023-03-22T04:42:48.487Z,2.30
2023-03-22T04:45:16.216Z,2.13
2023-03-22T04:47:45.160Z,4.82
2023-03-22T04:50:12.665Z,3.38
2023-03-22T04:52:40.459Z,1.63
2023-03-22T04:55:08.527Z,2.80
2023-03-22T04:57:36.936Z,4.78
2023-03-22T05:00:07.159Z,5.63
2023-03-22T05:02:34.810Z,2.28
2023-03-22T05:05:03.761Z,4.75
2023-03-22T05:07:31.490Z,2.13
2023-03-22T05:09:59.042Z,3.63
2023-03-22T05:12:27.001Z,3.13
2023-03-22T05:14:54.634Z,2.10
2023-03-22T05:17:22.216Z,4.22
2023-03-22T05:19:49.732Z,4.13
2023-03-22T05:22:22.346Z,3.78
2023-03-22T05:24:50.358Z,4.32
2023-03-22T05:27:17.886Z,5.45
2023-03-22T05:29:47.167Z,3.35
2023-03-22T05:32:18.294Z,2.43
2023-03-22T05:34:45.794Z,4.10
2023-03-22T05:37:14.152Z,3.35
2023-03-22T05:39:43.164Z,3.28
2023-03-22T05:42:10.716Z,1.83
2023-03-22T05:44:38.492Z,2.43
2023-03-22T05:47:06.942Z,1.70
2023-03-22T05:49:34.655Z,2.38
2023-03-22T05:52:04.447Z,1.65
2023-03-22T05:54:32.088Z,2.08
2023-03-22T05:57:01.017Z,3.53
2023-03-22T05:59:28.648Z,3.97
2023-03-22T06:01:56.246Z,6.85
2023-03-22T06:04:23.843Z,3.25
2023-03-22T06:06:53.891Z,3.97
2023-03-22T06:09:21.571Z,4.13
2023-03-22T06:11:49.059Z,5.20
2023-03-22T06:14:18.208Z,4.05
2023-03-22T06:16:49.907Z,3.50
2023-03-22T06:19:17.633Z,3.55
2023-03-22T06:21:46.782Z,3.50
2023-03-22T06:24:14.345Z,4.03
2023-03-22T06:26:41.851Z,4.15
2023-03-22T06:29:09.585Z,1.90
2023-03-22T06:31:38.904Z,2.75
2023-03-22T06:34:07.089Z,3.53
2023-03-22T06:36:34.842Z,4.28
2023-03-22T06:39:05.135Z,3.92
2023-03-22T06:41:33.048Z,4.65
2023-03-22T06:44:00.702Z,4.03
2023-03-22T06:46:28.232Z,4.50
2023-03-22T06:48:57.222Z,4.53
2023-03-22T06:51:24.886Z,4.45
2023-03-22T06:53:52.417Z,4.20
2023-03-22T06:56:20.109Z,3.10
2023-03-22T06:58:52.191Z,5.13
2023-03-22T07:01:20.102Z,4.20
2023-03-22T07:03:47.750Z,2.80
2023-03-22T07:06:16.849Z,4.53
2023-03-22T07:08:51.576Z,6.38
2023-03-22T07:11:20.870Z,4.87
2023-03-22T07:13:49.169Z,7.13
2023-03-22T07:16:19.379Z,8.43
2023-03-22T07:18:48.751Z,7.25
2023-03-22T07:21:18.749Z,11.25
2023-03-22T07:23:46.339Z,5.53
2023-03-22T07:26:14.409Z,11.30
2023-03-22T07:28:44.506Z,9.70
2023-03-22T07:31:12.707Z,9.05
2023-03-22T07:33:41.099Z,10.20
2023-03-22T07:36:09.443Z,11.20
2023-03-22T07:38:38.258Z,18.88
2023-03-22T07:41:06.760Z,9.98
2023-03-22T07:43:47.303Z,12.38
2023-03-22T07:46:20.409Z,17.42
2023-03-22T07:48:48.013Z,12.73
2023-03-22T07:51:15.819Z,13.38
2023-03-22T07:53:44.845Z,20.77
2023-03-22T07:56:12.475Z,10.77
2023-03-22T07:58:40.021Z,14.15
2023-03-22T08:01:09.539Z,14.43
2023-03-22T08:03:37.573Z,13.07
2023-03-22T08:06:07.743Z,19.25
2023-03-22T08:08:35.710Z,22.38
2023-03-22T08:11:04.779Z,16.23
2023-03-22T08:13:38.886Z,11.70
2023-03-22T08:16:07.070Z,17.67
2023-03-22T08:18:34.622Z,11.77
2023-03-22T08:21:02.216Z,16.58
2023-03-22T08:23:40.987Z,17.83
2023-03-22T08:26:11.230Z,17.40
2023-03-22T08:28:38.873Z,13.23
2023-03-22T08:31:13.217Z,13.68
2023-03-22T08:33:41.687Z,9.60
2023-03-22T08:36:12.820Z,17.55
2023-03-22T08:38:40.322Z,18.27
2023-03-22T08:41:14.578Z,9.30
2023-03-22T08:43:42.063Z,15.18
2023-03-22T08:46:10.358Z,15.82
2023-03-22T08:48:42.631Z,16.75
2023-03-22T08:51:10.644Z,20.10
2023-03-22T08:53:38.241Z,18.70
2023-03-22T08:56:06.638Z,14.18
2023-03-22T08:58:36.250Z,18.95
2023-03-22T09:01:03.894Z,14.40
2023-03-22T09:03:32.443Z,9.77
2023-03-22T09:06:00.219Z,23.27
2023-03-22T09:08:29.095Z,11.98
2023-03-22T09:10:56.836Z,10.55
2023-03-22T09:13:24.420Z,11.55
2023-03-22T09:15:53.639Z,11.38
2023-03-22T09:18:22.726Z,11.73
2023-03-22T09:20:51.893Z,13.63
2023-03-22T09:23:19.849Z,5.63
2023-03-22T09:25:48.600Z,11.60
2023-03-22T09:28:16.575Z,13.38
2023-03-22T09:30:45.123Z,15.20
2023-03-22T09:33:14.935Z,18.90
2023-03-22T09:35:43.731Z,14.95
2023-03-22T09:38:12.338Z,12.10
2023-03-22T09:40:42.633Z,12.40
2023-03-22T09:43:13.158Z,10.50
2023-03-22T09:45:42.743Z,8.60
2023-03-22T09:48:15.940Z,10.27
2023-03-22T09:50:48.414Z,17.40
2023-03-22T09:53:18.621Z,15.77
2023-03-22T09:55:48.365Z,11.13
2023-03-22T09:58:20.952Z,14.30
2023-03-22T10:00:49.580Z,20.55
2023-03-22T10:03:20.995Z,12.63
2023-03-22T10:05:51.699Z,13.43
2023-03-22T10:08:24.983Z,14.47
2023-03-22T10:10:52.946Z,12.45
2023-03-22T10:13:24.373Z,13.93
2023-03-22T10:15:53.056Z,11.45
2023-03-22T10:18:24.880Z,9.35
2023-03-22T10:23:45.850Z,11.57
2023-03-22T10:26:20.692Z,14.52
2023-03-22T10:28:50.751Z,9.45
2023-03-22T10:31:21.121Z,14.82
2023-03-22T10:33:53.965Z,13.47
2023-03-22T10:36:24.986Z,12.98
2023-03-22T10:38:54.094Z,6.95
2023-03-22T10:41:27.951Z,11.93
2023-03-22T10:43:57.389Z,11.48
2023-03-22T10:46:26.118Z,13.33
2023-03-22T10:51:46.024Z,7.53
2023-03-22T10:54:14.290Z,8.63
2023-03-22T10:56:41.833Z,6.35
2023-03-22T10:59:12.093Z,10.37
2023-03-22T11:01:45.011Z,8.63
2023-03-22T11:04:15.065Z,9.07
2023-03-22T11:06:49.756Z,10.10
2023-03-22T11:09:19.201Z,11.02
2023-03-22T11:11:49.103Z,7.37
2023-03-22T11:14:17.501Z,7.78
2023-03-22T11:16:50.645Z,6.63
2023-03-22T11:19:22.572Z,7.13
2023-03-22T11:21:52.536Z,7.00
2023-03-22T11:24:21.556Z,10.90
2023-03-22T11:27:03.177Z,6.28
2023-03-22T11:29:43.244Z,9.30
2023-03-22T11:32:21.898Z,7.53
2023-03-22T11:35:00.805Z,5.70
2023-03-22T11:37:30.735Z,9.77
2023-03-22T11:40:05.120Z,10.43
2023-03-22T11:42:34.947Z,4.78
2023-03-22T11:45:02.769Z,6.07
2023-03-22T11:47:34.708Z,6.55
2023-03-22T11:50:04.685Z,7.47
2023-03-22T11:52:33.929Z,6.25
2023-03-22T11:55:02.094Z,8.98
2023-03-22T11:57:31.599Z,5.47
2023-03-22T12:00:01.961Z,7.47
2023-03-22T12:02:30.679Z,9.10
2023-03-22T12:05:01.938Z,4.53
2023-03-22T12:07:31.394Z,8.35
2023-03-22T12:10:03.413Z,5.78
2023-03-22T12:12:35.345Z,6.38
2023-03-22T12:15:05.991Z,9.03
2023-03-22T12:17:36.956Z,11.27
2023-03-22T12:20:08.706Z,12.15
2023-03-22T12:22:39.978Z,11.60
2023-03-22T12:25:13.558Z,7.22
2023-03-22T12:27:43.186Z,9.40
2023-03-22T12:30:14.969Z,8.00
2023-03-22T12:32:45.460Z,8.90
2023-03-22T12:35:17.524Z,8.93
2023-03-22T12:37:47.416Z,8.50
2023-03-22T12:40:20.865Z,8.80
2023-03-22T12:42:55.575Z,6.80
2023-03-22T12:45:28.007Z,6.10
2023-03-22T12:47:59.010Z,7.20
2023-03-22T12:50:29.501Z,10.93
2023-03-22T12:52:58.443Z,7.70
2023-03-22T12:55:29.998Z,6.22
2023-03-22T12:57:57.867Z,9.07
2023-03-22T13:00:28.599Z,5.80
2023-03-22T13:03:00.499Z,12.68
2023-03-22T13:05:29.342Z,12.43
2023-03-22T13:07:58.879Z,12.30
2023-03-22T13:10:41.946Z,18.73
2023-03-22T13:13:12.050Z,11.23
2023-03-22T13:15:42.656Z,7.40
2023-03-22T13:18:24.469Z,9.98
2023-03-22T13:21:07.118Z,8.07
2023-03-22T13:23:34.705Z,11.20
2023-03-22T13:26:05.996Z,8.83
2023-03-22T13:28:38.240Z,7.82
2023-03-22T13:31:07.049Z,9.25
2023-03-22T13:33:36.001Z,7.55
2023-03-22T13:36:07.418Z,10.15
2023-03-22T13:38:38.135Z,10.07
2023-03-22T13:41:10.328Z,11.05
2023-03-22T13:43:44.850Z,10.20
2023-03-22T13:46:15.491Z,9.52
2023-03-22T13:48:53.896Z,12.77
2023-03-22T13:51:23.494Z,14.50
2023-03-22T13:54:00.272Z,5.70
2023-03-22T13:56:33.764Z,10.43
2023-03-22T13:59:03.576Z,10.07
2023-03-22T14:01:35.444Z,15.75
2023-03-22T14:04:06.981Z,8.53
2023-03-22T14:06:38.410Z,11.65
2023-03-22T14:09:12.517Z,10.65
2023-03-22T14:11:45.797Z,7.93
2023-03-22T14:14:16.224Z,9.07
2023-03-22T14:16:48.650Z,11.93
2023-03-22T14:19:18.593Z,13.02
